Rankin, North Carolina
Current Conditions -  °F | °C
As of 1:54 PM on Sunday 21 Dec 2014 (Local Time) from KGSO Reporting Station
Overcast Overcast  
Wind Chill: 46°   Ceiling: 2600
Heat Index: 46°   Visibility: 8mi
Dew Point: 34°   Wind: 0mph
Humidity: 63%   Direction: NA
Pressure: 30.21"   Gusts: NA
Location:  36.1157°N, 79.7378°W
Report Text: KGSO 211854Z 00000KT 8SM OVC026 08/01 A3021 RMK AO2 SLP233 T00780011
Loading
Personal Weather Stations






























Interactive Weather Map New forecast layout! Learn more

10-Day Weather Forecast

Advertisements
Track Severe Weather on mobile